createdAt,value
2022-08-05T00:02:11.505Z,1
2022-08-05T00:12:07.332Z,1
2022-08-05T00:22:07.425Z,1
2022-08-05T00:32:10.816Z,1
2022-08-05T00:42:07.456Z,1
2022-08-05T00:52:07.516Z,1
2022-08-05T01:02:07.414Z,1
2022-08-05T01:12:09.451Z,1
2022-08-05T01:22:07.454Z,1
2022-08-05T01:32:12.342Z,1
2022-08-05T01:42:07.467Z,1
2022-08-05T01:52:12.309Z,1
2022-08-05T02:02:07.527Z,1
2022-08-05T02:12:10.079Z,1
2022-08-05T02:22:07.651Z,1
2022-08-05T02:32:07.539Z,1
2022-08-05T02:42:07.638Z,1
2022-08-05T02:52:07.867Z,1
2022-08-05T03:02:07.637Z,1
2022-08-05T03:12:07.801Z,1
2022-08-05T03:22:15.909Z,1
2022-08-05T03:32:07.538Z,1
2022-08-05T03:42:07.627Z,1
2022-08-05T03:52:36.343Z,1
2022-08-05T04:02:10.042Z,1
2022-08-05T04:12:23.785Z,8
2022-08-05T04:22:08.493Z,29
2022-08-05T04:32:07.744Z,54
2022-08-05T04:42:07.638Z,64
2022-08-05T04:52:07.872Z,59
2022-08-05T05:02:35.925Z,62
2022-08-05T05:12:07.721Z,81
2022-08-05T05:22:23.315Z,82
2022-08-05T05:32:07.730Z,86
2022-08-05T05:42:07.806Z,91
2022-08-05T05:52:07.725Z,90
2022-08-05T06:02:07.825Z,86
2022-08-05T06:12:09.622Z,88
2022-08-05T06:22:07.816Z,91
2022-08-05T06:32:21.572Z,96
2022-08-05T06:42:07.820Z,95
2022-08-05T06:52:07.728Z,98
2022-08-05T07:02:07.869Z,94
2022-08-05T07:12:07.750Z,93
2022-08-05T07:22:07.997Z,98
2022-08-05T07:32:07.776Z,98
2022-08-05T07:42:13.641Z,98
2022-08-05T07:52:07.937Z,98
2022-08-05T08:02:10.559Z,97
2022-08-05T08:12:27.215Z,98
2022-08-05T08:22:08.988Z,98
2022-08-05T08:32:10.785Z,97
2022-08-05T08:42:11.019Z,97
2022-08-05T08:52:13.226Z,97
2022-08-05T09:02:08.533Z,96
2022-08-05T09:12:15.468Z,97
2022-08-05T09:22:17.581Z,97
2022-08-05T09:32:39.715Z,97
2022-08-05T09:42:08.476Z,97
2022-08-05T09:52:08.031Z,98
2022-08-05T10:02:08.201Z,98
2022-08-05T10:12:19.000Z,97
2022-08-05T10:22:09.044Z,97
2022-08-05T10:32:50.017Z,97
2022-08-05T10:42:07.965Z,97
2022-08-05T10:52:10.454Z,97
2022-08-05T11:02:08.106Z,97
2022-08-05T11:12:08.141Z,97
2022-08-05T11:22:08.185Z,97
2022-08-05T11:32:08.067Z,97
2022-08-05T11:42:08.155Z,97
2022-08-05T11:52:08.368Z,96
2022-08-05T12:02:12.219Z,97
2022-08-05T12:12:08.087Z,98
2022-08-05T12:22:09.620Z,98
2022-08-05T12:32:09.535Z,98
2022-08-05T12:42:08.355Z,97
2022-08-05T12:52:10.098Z,97
2022-08-05T13:02:08.299Z,97
2022-08-05T13:12:08.261Z,97
2022-08-05T13:22:08.145Z,97
2022-08-05T13:32:08.254Z,97
2022-08-05T13:42:08.148Z,96
2022-08-05T13:52:08.246Z,96
2022-08-05T14:02:08.145Z,96
2022-08-05T14:12:17.137Z,96
2022-08-05T14:22:11.506Z,96
2022-08-05T14:32:13.070Z,96
2022-08-05T14:42:19.236Z,96
2022-08-05T14:52:08.235Z,96
2022-08-05T15:02:15.229Z,96
2022-08-05T15:12:08.856Z,96
2022-08-05T15:22:08.385Z,95
2022-08-05T15:32:08.258Z,95
2022-08-05T15:42:50.175Z,96
2022-08-05T15:52:14.047Z,96
2022-08-05T16:02:09.323Z,96
2022-08-05T16:12:08.481Z,95
2022-08-05T16:22:10.646Z,95
2022-08-05T16:32:09.601Z,94
2022-08-05T16:42:13.344Z,94
2022-08-05T16:52:08.489Z,94
2022-08-05T17:02:08.437Z,94
2022-08-05T17:12:08.487Z,94
2022-08-05T17:22:08.366Z,95
2022-08-05T17:32:08.612Z,96
2022-08-05T17:42:18.752Z,94
2022-08-05T17:52:08.489Z,94
2022-08-05T18:02:10.706Z,93
2022-08-05T18:12:08.492Z,93
2022-08-05T18:22:11.460Z,93
2022-08-05T18:32:12.593Z,93
2022-08-05T18:42:11.096Z,92
2022-08-05T18:52:10.744Z,91
2022-08-05T19:02:11.138Z,90
2022-08-05T19:12:08.486Z,90
2022-08-05T19:22:08.805Z,88
2022-08-05T19:32:11.294Z,85
2022-08-05T19:42:09.107Z,81
2022-08-05T19:52:19.845Z,75
2022-08-05T20:02:08.590Z,63
2022-08-05T20:12:08.715Z,44
2022-08-05T20:22:09.517Z,24
2022-08-05T20:32:08.671Z,10
2022-08-05T20:42:11.666Z,3
2022-08-05T20:52:08.708Z,1
2022-08-05T21:02:08.835Z,1
2022-08-05T21:12:09.476Z,1
2022-08-05T21:22:09.522Z,1
2022-08-05T21:32:08.646Z,1
2022-08-05T21:42:19.907Z,1
2022-08-05T21:52:16.950Z,1
2022-08-05T22:02:08.747Z,1
2022-08-05T22:12:10.526Z,1
2022-08-05T22:22:08.769Z,1
2022-08-05T22:32:10.010Z,1
2022-08-05T22:42:11.888Z,1
2022-08-05T22:52:12.602Z,1
2022-08-05T23:02:08.845Z,1
2022-08-05T23:12:08.870Z,1
2022-08-05T23:22:08.767Z,1
2022-08-05T23:32:08.878Z,1
2022-08-05T23:42:12.117Z,1
2022-08-05T23:52:08.867Z,1
